createdAt,value
2019-02-24T00:02:08.751Z,4.50
2019-02-24T00:04:37.380Z,4.20
2019-02-24T00:07:05.975Z,4.30
2019-02-24T00:09:34.500Z,4.40
2019-02-24T00:12:03.144Z,4.10
2019-02-24T00:14:31.750Z,3.90
2019-02-24T00:17:00.157Z,3.80
2019-02-24T00:19:28.830Z,3.90
2019-02-24T00:21:57.248Z,4.20
2019-02-24T00:24:25.796Z,4.10
2019-02-24T00:26:55.470Z,4.10
2019-02-24T00:29:23.998Z,4.30
2019-02-24T00:31:52.758Z,4.20
2019-02-24T00:34:21.382Z,4.20
2019-02-24T00:36:51.022Z,4.30
2019-02-24T00:39:19.748Z,4.00
2019-02-24T00:41:48.394Z,4.30
2019-02-24T00:44:17.031Z,4.40
2019-02-24T00:46:45.657Z,4.30
2019-02-24T00:49:14.079Z,4.40
2019-02-24T00:51:42.862Z,4.40
2019-02-24T00:54:11.494Z,4.30
2019-02-24T00:56:40.012Z,4.00
2019-02-24T00:59:08.418Z,3.90
2019-02-24T01:01:37.080Z,4.00
2019-02-24T01:04:05.607Z,4.30
2019-02-24T01:06:34.225Z,4.10
2019-02-24T01:09:03.000Z,3.80
2019-02-24T01:11:33.385Z,4.00
2019-02-24T01:14:02.027Z,3.90
2019-02-24T01:16:30.774Z,4.10
2019-02-24T01:18:59.368Z,4.30
2019-02-24T01:21:27.800Z,4.00
2019-02-24T01:23:56.498Z,4.30
2019-02-24T01:26:24.997Z,3.90
2019-02-24T01:28:53.571Z,3.70
2019-02-24T01:31:21.957Z,3.80
2019-02-24T01:33:50.741Z,3.50
2019-02-24T01:36:19.326Z,3.70
2019-02-24T01:38:47.962Z,3.80
2019-02-24T01:41:16.730Z,4.10
2019-02-24T01:43:45.199Z,3.60
2019-02-24T01:46:13.882Z,3.90
2019-02-24T01:48:42.281Z,3.70
2019-02-24T01:51:10.985Z,3.90
2019-02-24T01:53:39.508Z,4.20
2019-02-24T01:56:07.994Z,3.90
2019-02-24T01:58:39.047Z,3.50
2019-02-24T02:01:07.919Z,3.40
2019-02-24T02:03:36.451Z,3.00
2019-02-24T02:06:04.989Z,3.00
2019-02-24T02:08:33.598Z,3.20
2019-02-24T02:11:02.407Z,3.40
2019-02-24T02:13:31.194Z,3.30
2019-02-24T02:15:59.809Z,3.70
2019-02-24T02:18:28.379Z,3.20
2019-02-24T02:20:57.601Z,3.10
2019-02-24T02:23:26.326Z,3.10
2019-02-24T02:25:54.950Z,3.30
2019-02-24T02:28:23.481Z,3.30
2019-02-24T02:30:51.892Z,2.90
2019-02-24T02:33:20.572Z,3.00
2019-02-24T02:35:49.235Z,2.80
2019-02-24T02:38:17.743Z,3.00
2019-02-24T02:40:46.528Z,2.90
2019-02-24T02:43:15.387Z,3.00
2019-02-24T02:45:43.912Z,2.80
2019-02-24T02:48:12.407Z,2.60
2019-02-24T02:50:41.192Z,2.60
2019-02-24T02:53:09.736Z,2.90
2019-02-24T02:55:38.474Z,2.90
2019-02-24T02:58:06.880Z,2.60
2019-02-24T03:00:35.803Z,2.90
2019-02-24T03:03:05.028Z,2.70
2019-02-24T03:05:33.768Z,2.30
2019-02-24T03:08:07.851Z,2.30
2019-02-24T03:10:36.515Z,2.00
2019-02-24T03:13:05.075Z,2.00
2019-02-24T03:15:33.792Z,2.00
2019-02-24T03:18:02.516Z,2.30
2019-02-24T03:20:31.605Z,2.00
2019-02-24T03:23:01.512Z,2.20
2019-02-24T03:25:30.043Z,1.90
2019-02-24T03:27:58.867Z,1.90
2019-02-24T03:30:27.369Z,2.40
2019-02-24T03:32:56.004Z,2.20
2019-02-24T03:35:24.523Z,2.20
2019-02-24T03:37:53.267Z,2.60
2019-02-24T03:40:22.061Z,2.60
2019-02-24T03:42:51.843Z,2.50
2019-02-24T03:45:20.498Z,2.40
2019-02-24T03:47:49.044Z,2.30
2019-02-24T03:50:17.813Z,2.00
2019-02-24T03:52:46.541Z,2.00
2019-02-24T03:55:15.374Z,1.90
2019-02-24T03:57:43.974Z,2.30
2019-02-24T04:00:12.750Z,2.60
2019-02-24T04:02:41.286Z,2.20
2019-02-24T04:05:09.933Z,2.30
2019-02-24T04:07:38.440Z,2.20
2019-02-24T04:10:07.466Z,2.30
2019-02-24T04:12:36.014Z,2.10
2019-02-24T04:15:05.036Z,2.20
2019-02-24T04:17:33.644Z,2.10
2019-02-24T04:20:02.355Z,2.30
2019-02-24T04:22:31.032Z,2.00
2019-02-24T04:24:59.453Z,2.10
2019-02-24T04:27:28.205Z,2.10
2019-02-24T04:29:56.719Z,2.20
2019-02-24T04:32:25.327Z,2.10
2019-02-24T04:34:53.734Z,1.90
2019-02-24T04:37:22.288Z,2.00
2019-02-24T04:39:50.827Z,2.30
2019-02-24T04:42:19.608Z,2.00
2019-02-24T04:44:49.216Z,2.20
2019-02-24T04:47:17.817Z,2.30
2019-02-24T04:49:46.379Z,2.30
2019-02-24T04:52:14.936Z,2.10
2019-02-24T04:54:43.556Z,2.10
2019-02-24T04:57:11.961Z,2.40
2019-02-24T04:59:40.599Z,2.30
2019-02-24T05:02:09.323Z,2.50
2019-02-24T05:04:38.093Z,2.30
2019-02-24T05:07:06.922Z,2.40
2019-02-24T05:09:35.571Z,2.30
2019-02-24T05:12:04.212Z,2.10
2019-02-24T05:14:32.770Z,1.80
2019-02-24T05:17:01.263Z,2.30
2019-02-24T05:19:29.874Z,2.10
2019-02-24T05:21:58.650Z,2.00
2019-02-24T05:24:27.388Z,1.90
2019-02-24T05:26:57.084Z,1.90
2019-02-24T05:29:25.881Z,1.90
2019-02-24T05:31:54.647Z,1.80
2019-02-24T05:34:23.048Z,2.30
2019-02-24T05:36:51.862Z,2.10
2019-02-24T05:39:20.398Z,2.30
2019-02-24T05:41:49.009Z,2.60
2019-02-24T05:44:17.545Z,2.20
2019-02-24T05:46:47.190Z,2.30
2019-02-24T05:49:15.777Z,2.30
2019-02-24T05:51:44.457Z,2.40
2019-02-24T05:54:13.092Z,2.40
2019-02-24T05:56:41.630Z,2.20
2019-02-24T05:59:10.381Z,1.70
2019-02-24T06:01:38.808Z,1.70
2019-02-24T06:04:07.368Z,1.90
2019-02-24T06:06:35.910Z,1.60
2019-02-24T06:09:07.241Z,1.60
2019-02-24T06:11:36.543Z,1.90
2019-02-24T06:14:05.606Z,2.40
2019-02-24T06:16:34.098Z,2.40
2019-02-24T06:19:03.002Z,2.40
2019-02-24T06:21:31.629Z,2.30
2019-02-24T06:24:00.228Z,2.30
2019-02-24T06:26:30.137Z,2.00
2019-02-24T06:28:58.878Z,1.40
2019-02-24T06:31:27.482Z,1.40
2019-02-24T06:33:56.111Z,1.20
2019-02-24T06:36:24.856Z,1.70
2019-02-24T06:38:53.396Z,1.70
2019-02-24T06:41:22.027Z,2.10
2019-02-24T06:43:50.619Z,2.00
2019-02-24T06:46:19.320Z,2.40
2019-02-24T06:48:48.967Z,2.20
2019-02-24T06:51:18.588Z,2.20
2019-02-24T06:53:47.262Z,2.40
2019-02-24T06:56:15.934Z,3.00
2019-02-24T06:58:44.572Z,3.00
2019-02-24T07:01:13.088Z,3.20
2019-02-24T07:03:41.753Z,3.20
2019-02-24T07:06:10.287Z,2.90
2019-02-24T07:08:39.004Z,2.90
2019-02-24T07:11:07.879Z,3.40
2019-02-24T07:13:36.439Z,3.70
2019-02-24T07:16:04.914Z,3.70
2019-02-24T07:18:33.507Z,4.00
2019-02-24T07:21:02.260Z,3.60
2019-02-24T07:23:30.755Z,3.50
2019-02-24T07:25:59.436Z,4.00
2019-02-24T07:28:27.845Z,4.50
2019-02-24T07:30:56.493Z,4.30
2019-02-24T07:33:25.079Z,4.50
2019-02-24T07:35:53.722Z,4.50
2019-02-24T07:38:22.158Z,4.60
2019-02-24T07:40:50.702Z,5.00
2019-02-24T07:43:19.184Z,5.10
2019-02-24T07:45:47.963Z,5.30
2019-02-24T07:48:16.621Z,4.90
2019-02-24T07:50:45.400Z,5.10
2019-02-24T07:53:13.852Z,5.10
2019-02-24T07:55:42.317Z,5.30
2019-02-24T07:58:10.868Z,5.30
2019-02-24T08:00:39.714Z,5.30
2019-02-24T08:03:08.389Z,5.40
2019-02-24T08:05:37.001Z,5.70
2019-02-24T08:08:05.758Z,5.90
2019-02-24T08:10:34.237Z,5.60
2019-02-24T08:13:02.798Z,5.90
2019-02-24T08:15:31.391Z,6.00
2019-02-24T08:17:59.902Z,5.90
2019-02-24T08:20:28.501Z,6.10
2019-02-24T08:22:57.001Z,6.10
2019-02-24T08:25:25.463Z,6.10
2019-02-24T08:27:55.559Z,6.20
2019-02-24T08:30:24.148Z,6.40
2019-02-24T08:32:52.728Z,6.20
2019-02-24T08:35:21.425Z,6.40
2019-02-24T08:37:49.921Z,6.60
2019-02-24T08:40:18.654Z,6.50
2019-02-24T08:42:47.100Z,6.50
2019-02-24T08:45:15.582Z,6.60
2019-02-24T08:47:44.369Z,6.90
2019-02-24T08:50:13.230Z,7.10
2019-02-24T08:52:42.035Z,6.90
2019-02-24T08:55:10.552Z,6.90
2019-02-24T08:57:39.200Z,10.00
2019-02-24T09:00:09.253Z,6.60
2019-02-24T09:02:39.122Z,6.70
2019-02-24T09:05:07.930Z,6.40
2019-02-24T09:07:37.464Z,6.40
2019-02-24T09:10:06.622Z,6.60
2019-02-24T09:12:35.256Z,6.80
2019-02-24T09:15:04.109Z,6.70
2019-02-24T09:17:32.840Z,6.80
2019-02-24T09:20:42.002Z,6.80
2019-02-24T09:23:11.485Z,6.80
2019-02-24T09:25:40.073Z,7.40
2019-02-24T09:28:11.090Z,7.10
2019-02-24T09:30:44.787Z,7.10
2019-02-24T09:33:13.468Z,7.10
2019-02-24T09:35:42.066Z,6.60
2019-02-24T09:38:18.576Z,6.50
2019-02-24T09:40:47.220Z,6.90
2019-02-24T09:43:16.149Z,6.80
2019-02-24T09:45:44.642Z,6.80
2019-02-24T09:48:14.591Z,6.70
2019-02-24T09:50:44.359Z,6.60
2019-02-24T09:53:13.419Z,6.60
2019-02-24T09:55:42.718Z,6.80
2019-02-24T09:58:12.135Z,6.80
2019-02-24T10:00:50.413Z,7.10
2019-02-24T10:03:20.215Z,7.20
2019-02-24T10:05:49.226Z,6.90
2019-02-24T10:08:17.883Z,7.20
2019-02-24T10:10:46.738Z,7.30
2019-02-24T10:13:15.530Z,7.10
2019-02-24T10:15:45.101Z,7.20
2019-02-24T10:18:23.390Z,7.50
2019-02-24T10:20:53.581Z,7.80
2019-02-24T10:23:22.939Z,7.20
2019-02-24T10:25:51.451Z,7.10
2019-02-24T10:28:20.134Z,7.30
2019-02-24T10:30:48.818Z,6.80
2019-02-24T10:33:17.649Z,7.20
2019-02-24T10:35:47.362Z,7.00
2019-02-24T10:38:16.063Z,7.20
2019-02-24T10:40:46.437Z,7.40
2019-02-24T10:43:15.145Z,7.20
2019-02-24T10:45:43.693Z,7.10
2019-02-24T10:48:14.279Z,7.10
2019-02-24T10:51:04.822Z,8.70
2019-02-24T10:53:53.191Z,7.30
2019-02-24T10:56:24.611Z,7.30
2019-02-24T10:58:53.041Z,7.60
2019-02-24T11:01:29.286Z,7.50
2019-02-24T11:03:52.000Z,7.60
2019-02-24T11:06:20.695Z,7.40
2019-02-24T11:08:49.406Z,7.30
2019-02-24T11:11:18.218Z,7.60
2019-02-24T11:13:46.766Z,7.60
2019-02-24T11:16:15.979Z,7.50
2019-02-24T11:18:44.610Z,7.90
2019-02-24T11:21:13.268Z,7.60
2019-02-24T11:23:41.923Z,7.70
2019-02-24T11:26:10.734Z,7.80
2019-02-24T11:28:39.381Z,9.10
2019-02-24T11:31:08.041Z,7.80
2019-02-24T11:33:37.238Z,8.20
2019-02-24T11:36:07.187Z,8.30
2019-02-24T11:38:36.133Z,8.50
2019-02-24T11:41:04.794Z,8.40
2019-02-24T11:43:33.633Z,8.00
2019-02-24T11:46:02.454Z,7.80
2019-02-24T11:48:31.447Z,8.10
2019-02-24T11:51:00.762Z,8.30
2019-02-24T11:53:30.352Z,8.10
2019-02-24T11:55:58.990Z,8.40
2019-02-24T11:58:27.560Z,8.60
2019-02-24T12:00:55.990Z,9.50
2019-02-24T12:03:24.690Z,9.60
2019-02-24T12:05:53.341Z,9.60
2019-02-24T12:08:22.099Z,9.60
2019-02-24T12:10:50.804Z,9.20
2019-02-24T12:13:23.005Z,8.70
2019-02-24T12:15:51.932Z,8.50
2019-02-24T12:18:20.458Z,8.90
2019-02-24T12:20:49.125Z,8.80
2019-02-24T12:23:17.907Z,8.80
2019-02-24T12:25:46.523Z,9.10
2019-02-24T12:28:16.376Z,8.80
2019-02-24T12:30:45.036Z,8.70
2019-02-24T12:33:13.673Z,8.90
2019-02-24T12:35:42.410Z,9.00
2019-02-24T12:38:11.294Z,8.90
2019-02-24T12:40:39.890Z,5.50
2019-02-24T12:43:08.464Z,8.70
2019-02-24T12:45:36.993Z,8.70
2019-02-24T12:48:05.752Z,8.90
2019-02-24T12:50:34.279Z,8.80
2019-02-24T12:53:03.681Z,8.80
2019-02-24T12:55:33.552Z,8.90
2019-02-24T12:58:07.457Z,8.80
2019-02-24T13:00:36.549Z,8.90
2019-02-24T13:03:05.334Z,8.70
2019-02-24T13:05:34.173Z,8.90
2019-02-24T13:08:03.019Z,8.90
2019-02-24T13:10:32.248Z,8.70
2019-02-24T13:13:00.912Z,9.00
2019-02-24T13:15:30.295Z,8.90
2019-02-24T13:17:59.125Z,9.10
2019-02-24T13:20:27.941Z,8.80
2019-02-24T13:22:57.950Z,8.90
2019-02-24T13:25:26.906Z,9.10
2019-02-24T13:27:55.866Z,9.20
2019-02-24T13:30:25.880Z,8.80
2019-02-24T13:32:54.616Z,8.80
2019-02-24T13:35:23.328Z,9.00
2019-02-24T13:37:52.883Z,8.90
2019-02-24T13:40:21.758Z,8.70
2019-02-24T13:42:50.723Z,8.80
2019-02-24T13:45:19.605Z,8.60
2019-02-24T13:47:48.462Z,8.70
2019-02-24T13:50:18.399Z,9.10
2019-02-24T13:52:47.062Z,8.80
2019-02-24T13:55:15.695Z,9.00
2019-02-24T13:57:45.580Z,9.10
2019-02-24T14:00:16.435Z,9.50
2019-02-24T14:02:45.143Z,9.10
2019-02-24T14:05:14.219Z,9.20
2019-02-24T14:07:43.063Z,9.00
2019-02-24T14:10:12.029Z,9.00
2019-02-24T14:12:40.877Z,9.30
2019-02-24T14:15:58.616Z,9.10
2019-02-24T14:18:29.034Z,9.90
2019-02-24T14:21:00.571Z,10.20
2019-02-24T14:23:29.579Z,11.30
2019-02-24T14:25:58.544Z,11.00
2019-02-24T14:28:27.519Z,10.80
2019-02-24T14:30:56.770Z,11.10
2019-02-24T14:33:25.957Z,11.40
2019-02-24T14:35:55.224Z,11.40
2019-02-24T14:38:24.297Z,12.30
2019-02-24T14:40:53.663Z,11.80
2019-02-24T14:43:23.658Z,11.20
2019-02-24T14:45:55.197Z,12.00
2019-02-24T14:48:24.428Z,11.10
2019-02-24T14:50:53.623Z,10.80
2019-02-24T14:53:22.766Z,11.60
2019-02-24T14:55:52.787Z,12.30
2019-02-24T14:58:21.942Z,12.50
2019-02-24T15:00:51.156Z,11.60
2019-02-24T15:03:19.799Z,11.70
2019-02-24T15:05:48.366Z,11.20
2019-02-24T15:08:17.118Z,11.10
2019-02-24T15:10:45.694Z,11.10
2019-02-24T15:13:14.473Z,11.60
2019-02-24T15:15:43.172Z,11.40
2019-02-24T15:18:11.802Z,11.20
2019-02-24T15:20:40.302Z,11.30
2019-02-24T15:23:08.911Z,11.60
2019-02-24T15:25:37.784Z,11.50
2019-02-24T15:28:06.602Z,11.90
2019-02-24T15:30:35.532Z,11.80
2019-02-24T15:33:04.238Z,11.20
2019-02-24T15:35:32.929Z,11.10
2019-02-24T15:38:01.703Z,11.00
2019-02-24T15:40:30.612Z,11.20
2019-02-24T15:42:59.326Z,11.20
2019-02-24T15:45:28.205Z,11.10
2019-02-24T15:47:57.182Z,11.10
2019-02-24T15:50:25.888Z,11.60
2019-02-24T15:52:54.989Z,10.40
2019-02-24T15:55:23.901Z,10.00
2019-02-24T15:57:52.962Z,10.10
2019-02-24T16:00:22.090Z,10.40
2019-02-24T16:03:00.670Z,10.40
2019-02-24T16:05:22.326Z,10.80
2019-02-24T16:07:51.824Z,10.60
2019-02-24T16:10:22.000Z,10.80
2019-02-24T16:12:51.626Z,10.00
2019-02-24T16:15:21.249Z,9.70
2019-02-24T16:17:50.758Z,9.70
2019-02-24T16:20:23.236Z,9.60
2019-02-24T16:22:52.660Z,9.70
2019-02-24T16:25:22.071Z,9.60
2019-02-24T16:27:51.684Z,9.40
2019-02-24T16:30:21.122Z,9.20
2019-02-24T16:32:50.580Z,9.30
2019-02-24T16:35:21.035Z,9.40
2019-02-24T16:37:50.486Z,9.20
